sensor_id;sensor_type;location;lat;lon;timestamp;P1;durP1;ratioP1;P2;durP2;ratioP2
15643;SDS011;7921;43.586;1.408;2023-01-13T00:00:22;16.17;;;14.50;;
15643;SDS011;7921;43.586;1.408;2023-01-13T00:02:48;16.87;;;14.27;;
15643;SDS011;7921;43.586;1.408;2023-01-13T00:05:13;15.50;;;13.50;;
15643;SDS011;7921;43.586;1.408;2023-01-13T00:07:38;18.97;;;14.80;;
15643;SDS011;7921;43.586;1.408;2023-01-13T00:10:05;15.63;;;14.03;;
15643;SDS011;7921;43.586;1.408;2023-01-13T00:12:32;17.53;;;15.03;;
15643;SDS011;7921;43.586;1.408;2023-01-13T00:14:58;16.77;;;14.53;;
15643;SDS011;7921;43.586;1.408;2023-01-13T00:17:23;18.13;;;14.40;;
15643;SDS011;7921;43.586;1.408;2023-01-13T00:19:48;16.93;;;15.23;;
15643;SDS011;7921;43.586;1.408;2023-01-13T00:22:15;16.93;;;14.37;;
15643;SDS011;7921;43.586;1.408;2023-01-13T00:24:40;14.57;;;13.13;;
15643;SDS011;7921;43.586;1.408;2023-01-13T00:27:06;16.90;;;13.87;;
15643;SDS011;7921;43.586;1.408;2023-01-13T00:29:31;15.20;;;13.70;;
15643;SDS011;7921;43.586;1.408;2023-01-13T00:31:56;14.80;;;13.00;;
15643;SDS011;7921;43.586;1.408;2023-01-13T00:34:22;14.57;;;13.07;;
15643;SDS011;7921;43.586;1.408;2023-01-13T00:36:48;13.67;;;12.13;;
15643;SDS011;7921;43.586;1.408;2023-01-13T00:39:14;14.27;;;11.10;;
15643;SDS011;7921;43.586;1.408;2023-01-13T00:41:39;12.37;;;11.17;;
15643;SDS011;7921;43.586;1.408;2023-01-13T00:44:23;13.30;;;11.43;;
15643;SDS011;7921;43.586;1.408;2023-01-13T00:46:48;12.77;;;10.27;;
15643;SDS011;7921;43.586;1.408;2023-01-13T00:49:14;13.90;;;10.13;;
15643;SDS011;7921;43.586;1.408;2023-01-13T00:51:39;10.30;;;9.20;;
15643;SDS011;7921;43.586;1.408;2023-01-13T00:54:05;11.80;;;9.40;;
15643;SDS011;7921;43.586;1.408;2023-01-13T00:56:30;11.90;;;9.70;;
15643;SDS011;7921;43.586;1.408;2023-01-13T00:58:55;10.33;;;8.67;;
15643;SDS011;7921;43.586;1.408;2023-01-13T01:01:22;12.37;;;8.03;;
15643;SDS011;7921;43.586;1.408;2023-01-13T01:03:51;9.33;;;8.07;;
15643;SDS011;7921;43.586;1.408;2023-01-13T01:06:22;10.73;;;8.13;;
15643;SDS011;7921;43.586;1.408;2023-01-13T01:08:48;11.53;;;7.67;;
15643;SDS011;7921;43.586;1.408;2023-01-13T01:11:15;8.63;;;7.50;;
15643;SDS011;7921;43.586;1.408;2023-01-13T01:13:43;10.50;;;7.80;;
15643;SDS011;7921;43.586;1.408;2023-01-13T01:16:10;9.53;;;8.37;;
15643;SDS011;7921;43.586;1.408;2023-01-13T01:18:38;8.40;;;7.37;;
15643;SDS011;7921;43.586;1.408;2023-01-13T01:21:04;9.37;;;7.50;;
15643;SDS011;7921;43.586;1.408;2023-01-13T01:23:31;8.67;;;7.47;;
15643;SDS011;7921;43.586;1.408;2023-01-13T01:26:04;9.53;;;7.27;;
15643;SDS011;7921;43.586;1.408;2023-01-13T01:28:31;9.43;;;7.60;;
15643;SDS011;7921;43.586;1.408;2023-01-13T01:30:56;10.87;;;7.23;;
15643;SDS011;7921;43.586;1.408;2023-01-13T01:33:26;7.70;;;6.47;;
15643;SDS011;7921;43.586;1.408;2023-01-13T01:35:52;9.27;;;7.77;;
15643;SDS011;7921;43.586;1.408;2023-01-13T01:38:18;9.63;;;6.87;;
15643;SDS011;7921;43.586;1.408;2023-01-13T01:40:45;10.10;;;6.83;;
15643;SDS011;7921;43.586;1.408;2023-01-13T01:43:11;8.27;;;6.87;;
15643;SDS011;7921;43.586;1.408;2023-01-13T01:45:57;10.13;;;6.97;;
15643;SDS011;7921;43.586;1.408;2023-01-13T01:48:22;8.20;;;6.37;;
15643;SDS011;7921;43.586;1.408;2023-01-13T01:50:48;7.30;;;6.20;;
15643;SDS011;7921;43.586;1.408;2023-01-13T01:53:15;8.03;;;6.07;;
15643;SDS011;7921;43.586;1.408;2023-01-13T01:55:43;9.20;;;6.43;;
15643;SDS011;7921;43.586;1.408;2023-01-13T02:00:34;6.97;;;5.93;;
15643;SDS011;7921;43.586;1.408;2023-01-13T02:02:59;8.27;;;5.57;;
15643;SDS011;7921;43.586;1.408;2023-01-13T02:05:25;9.23;;;6.43;;
15643;SDS011;7921;43.586;1.408;2023-01-13T02:07:51;9.17;;;6.87;;
15643;SDS011;7921;43.586;1.408;2023-01-13T02:10:19;7.73;;;6.47;;
15643;SDS011;7921;43.586;1.408;2023-01-13T02:12:46;7.10;;;6.10;;
15643;SDS011;7921;43.586;1.408;2023-01-13T02:15:16;6.73;;;5.80;;
15643;SDS011;7921;43.586;1.408;2023-01-13T02:23:21;7.13;;;6.27;;
15643;SDS011;7921;43.586;1.408;2023-01-13T02:26:18;8.37;;;5.83;;
15643;SDS011;7921;43.586;1.408;2023-01-13T02:32:16;7.20;;;5.37;;
15643;SDS011;7921;43.586;1.408;2023-01-13T02:34:47;5.73;;;5.17;;
15643;SDS011;7921;43.586;1.408;2023-01-13T02:37:22;7.53;;;5.40;;
15643;SDS011;7921;43.586;1.408;2023-01-13T02:40:00;7.43;;;5.43;;
15643;SDS011;7921;43.586;1.408;2023-01-13T02:42:39;6.47;;;5.03;;
15643;SDS011;7921;43.586;1.408;2023-01-13T02:45:40;7.30;;;5.67;;
15643;SDS011;7921;43.586;1.408;2023-01-13T02:48:10;9.53;;;5.70;;
15643;SDS011;7921;43.586;1.408;2023-01-13T02:50:38;8.60;;;6.03;;
15643;SDS011;7921;43.586;1.408;2023-01-13T02:53:07;9.40;;;5.57;;
15643;SDS011;7921;43.586;1.408;2023-01-13T02:55:45;7.47;;;5.43;;
15643;SDS011;7921;43.586;1.408;2023-01-13T02:58:12;6.00;;;5.33;;
15643;SDS011;7921;43.586;1.408;2023-01-13T03:00:40;9.70;;;5.87;;
15643;SDS011;7921;43.586;1.408;2023-01-13T03:03:05;5.77;;;4.90;;
15643;SDS011;7921;43.586;1.408;2023-01-13T03:05:31;7.93;;;5.83;;
15643;SDS011;7921;43.586;1.408;2023-01-13T03:11:17;7.07;;;5.78;;
15643;SDS011;7921;43.586;1.408;2023-01-13T03:19:29;6.13;;;5.37;;
15643;SDS011;7921;43.586;1.408;2023-01-13T03:21:58;7.97;;;5.37;;
15643;SDS011;7921;43.586;1.408;2023-01-13T03:24:37;9.33;;;5.47;;
15643;SDS011;7921;43.586;1.408;2023-01-13T03:29:39;6.10;;;5.00;;
15643;SDS011;7921;43.586;1.408;2023-01-13T03:35:17;6.73;;;4.73;;
15643;SDS011;7921;43.586;1.408;2023-01-13T03:37:55;5.57;;;4.67;;
15643;SDS011;7921;43.586;1.408;2023-01-13T03:40:28;8.10;;;5.17;;
15643;SDS011;7921;43.586;1.408;2023-01-13T03:42:59;7.73;;;5.00;;
15643;SDS011;7921;43.586;1.408;2023-01-13T03:45:48;6.07;;;4.87;;
15643;SDS011;7921;43.586;1.408;2023-01-13T03:48:17;5.73;;;4.97;;
15643;SDS011;7921;43.586;1.408;2023-01-13T03:50:46;6.33;;;4.90;;
15643;SDS011;7921;43.586;1.408;2023-01-13T03:53:18;6.23;;;4.50;;
15643;SDS011;7921;43.586;1.408;2023-01-13T03:55:47;5.77;;;4.60;;
15643;SDS011;7921;43.586;1.408;2023-01-13T03:58:29;6.20;;;4.47;;
15643;SDS011;7921;43.586;1.408;2023-01-13T04:06:13;6.53;;;4.23;;
15643;SDS011;7921;43.586;1.408;2023-01-13T04:08:48;6.90;;;4.40;;
15643;SDS011;7921;43.586;1.408;2023-01-13T04:11:21;6.67;;;4.40;;
15643;SDS011;7921;43.586;1.408;2023-01-13T04:13:52;5.87;;;4.40;;
15643;SDS011;7921;43.586;1.408;2023-01-13T04:16:18;6.50;;;4.40;;
15643;SDS011;7921;43.586;1.408;2023-01-13T04:18:43;4.67;;;4.20;;
15643;SDS011;7921;43.586;1.408;2023-01-13T04:21:09;5.17;;;3.83;;
15643;SDS011;7921;43.586;1.408;2023-01-13T04:23:34;5.40;;;4.53;;
15643;SDS011;7921;43.586;1.408;2023-01-13T04:26:00;5.90;;;4.60;;
15643;SDS011;7921;43.586;1.408;2023-01-13T04:28:25;7.53;;;4.47;;
15643;SDS011;7921;43.586;1.408;2023-01-13T04:30:50;5.27;;;3.93;;
15643;SDS011;7921;43.586;1.408;2023-01-13T04:33:16;6.23;;;4.10;;
15643;SDS011;7921;43.586;1.408;2023-01-13T04:35:43;5.60;;;4.30;;
15643;SDS011;7921;43.586;1.408;2023-01-13T04:38:10;6.97;;;4.70;;
15643;SDS011;7921;43.586;1.408;2023-01-13T04:40:38;4.60;;;4.20;;
15643;SDS011;7921;43.586;1.408;2023-01-13T04:43:04;6.07;;;3.90;;
15643;SDS011;7921;43.586;1.408;2023-01-13T04:45:29;7.23;;;3.50;;
15643;SDS011;7921;43.586;1.408;2023-01-13T04:47:55;5.13;;;3.57;;
15643;SDS011;7921;43.586;1.408;2023-01-13T04:50:21;6.03;;;3.90;;
15643;SDS011;7921;43.586;1.408;2023-01-13T04:52:47;5.60;;;3.47;;
15643;SDS011;7921;43.586;1.408;2023-01-13T04:55:13;3.90;;;3.23;;
15643;SDS011;7921;43.586;1.408;2023-01-13T04:57:39;5.67;;;4.13;;
15643;SDS011;7921;43.586;1.408;2023-01-13T05:00:05;6.17;;;3.80;;
15643;SDS011;7921;43.586;1.408;2023-01-13T05:02:31;5.50;;;3.83;;
15643;SDS011;7921;43.586;1.408;2023-01-13T05:04:56;7.43;;;3.97;;
15643;SDS011;7921;43.586;1.408;2023-01-13T05:07:22;4.67;;;3.60;;
15643;SDS011;7921;43.586;1.408;2023-01-13T05:09:47;5.60;;;4.10;;
15643;SDS011;7921;43.586;1.408;2023-01-13T05:12:12;7.73;;;3.80;;
15643;SDS011;7921;43.586;1.408;2023-01-13T05:14:56;6.00;;;4.27;;
15643;SDS011;7921;43.586;1.408;2023-01-13T05:17:40;6.30;;;3.90;;
15643;SDS011;7921;43.586;1.408;2023-01-13T05:20:06;5.50;;;3.90;;
15643;SDS011;7921;43.586;1.408;2023-01-13T05:22:33;4.70;;;3.70;;
15643;SDS011;7921;43.586;1.408;2023-01-13T05:25:30;3.93;;;3.50;;
15643;SDS011;7921;43.586;1.408;2023-01-13T05:27:58;5.53;;;3.20;;
15643;SDS011;7921;43.586;1.408;2023-01-13T05:30:27;5.13;;;3.70;;
15643;SDS011;7921;43.586;1.408;2023-01-13T05:32:55;5.37;;;3.40;;
15643;SDS011;7921;43.586;1.408;2023-01-13T05:35:20;3.77;;;3.20;;
15643;SDS011;7921;43.586;1.408;2023-01-13T05:37:46;4.53;;;3.10;;
15643;SDS011;7921;43.586;1.408;2023-01-13T05:40:13;7.10;;;3.50;;
15643;SDS011;7921;43.586;1.408;2023-01-13T05:48:14;5.00;;;3.40;;
15643;SDS011;7921;43.586;1.408;2023-01-13T05:50:40;5.97;;;3.87;;
15643;SDS011;7921;43.586;1.408;2023-01-13T05:53:05;6.23;;;3.43;;
15643;SDS011;7921;43.586;1.408;2023-01-13T05:55:31;5.50;;;3.80;;
15643;SDS011;7921;43.586;1.408;2023-01-13T05:57:56;4.53;;;3.07;;
15643;SDS011;7921;43.586;1.408;2023-01-13T06:00:21;6.90;;;3.80;;
15643;SDS011;7921;43.586;1.408;2023-01-13T06:02:47;4.97;;;3.77;;
15643;SDS011;7921;43.586;1.408;2023-01-13T06:05:13;5.50;;;3.97;;
15643;SDS011;7921;43.586;1.408;2023-01-13T06:07:38;4.73;;;3.37;;
15643;SDS011;7921;43.586;1.408;2023-01-13T06:10:04;6.03;;;3.60;;
15643;SDS011;7921;43.586;1.408;2023-01-13T06:12:29;4.87;;;3.33;;
15643;SDS011;7921;43.586;1.408;2023-01-13T06:14:55;5.77;;;4.30;;
15643;SDS011;7921;43.586;1.408;2023-01-13T06:17:20;7.00;;;4.10;;
15643;SDS011;7921;43.586;1.408;2023-01-13T06:19:45;6.07;;;3.87;;
15643;SDS011;7921;43.586;1.408;2023-01-13T06:22:18;4.37;;;3.73;;
15643;SDS011;7921;43.586;1.408;2023-01-13T06:24:48;8.10;;;4.13;;
15643;SDS011;7921;43.586;1.408;2023-01-13T06:27:14;6.57;;;4.20;;
15643;SDS011;7921;43.586;1.408;2023-01-13T06:29:39;7.43;;;4.50;;
15643;SDS011;7921;43.586;1.408;2023-01-13T06:32:06;9.13;;;4.80;;
15643;SDS011;7921;43.586;1.408;2023-01-13T06:34:37;5.87;;;4.63;;
15643;SDS011;7921;43.586;1.408;2023-01-13T06:37:03;6.47;;;4.60;;
15643;SDS011;7921;43.586;1.408;2023-01-13T06:39:29;5.67;;;4.60;;
15643;SDS011;7921;43.586;1.408;2023-01-13T06:41:55;6.40;;;4.70;;
15643;SDS011;7921;43.586;1.408;2023-01-13T06:44:40;6.40;;;4.03;;
15643;SDS011;7921;43.586;1.408;2023-01-13T06:47:05;8.47;;;4.97;;
15643;SDS011;7921;43.586;1.408;2023-01-13T06:49:31;7.17;;;4.37;;
15643;SDS011;7921;43.586;1.408;2023-01-13T06:51:56;5.73;;;4.10;;
15643;SDS011;7921;43.586;1.408;2023-01-13T06:54:22;5.27;;;4.17;;
15643;SDS011;7921;43.586;1.408;2023-01-13T06:56:47;6.90;;;3.80;;
15643;SDS011;7921;43.586;1.408;2023-01-13T06:59:13;5.43;;;3.50;;
15643;SDS011;7921;43.586;1.408;2023-01-13T07:01:38;6.77;;;3.53;;
15643;SDS011;7921;43.586;1.408;2023-01-13T07:04:03;6.30;;;3.67;;
15643;SDS011;7921;43.586;1.408;2023-01-13T07:06:29;5.23;;;3.40;;
15643;SDS011;7921;43.586;1.408;2023-01-13T07:08:54;9.20;;;3.60;;
15643;SDS011;7921;43.586;1.408;2023-01-13T07:11:20;5.83;;;3.50;;
15643;SDS011;7921;43.586;1.408;2023-01-13T07:13:45;5.77;;;3.43;;
15643;SDS011;7921;43.586;1.408;2023-01-13T07:16:29;5.73;;;3.33;;
15643;SDS011;7921;43.586;1.408;2023-01-13T07:18:55;4.73;;;3.50;;
15643;SDS011;7921;43.586;1.408;2023-01-13T07:21:20;6.03;;;3.17;;
15643;SDS011;7921;43.586;1.408;2023-01-13T07:23:46;3.27;;;2.97;;
15643;SDS011;7921;43.586;1.408;2023-01-13T07:26:12;4.73;;;3.37;;
15643;SDS011;7921;43.586;1.408;2023-01-13T07:28:38;4.53;;;2.93;;
15643;SDS011;7921;43.586;1.408;2023-01-13T07:31:04;3.77;;;2.63;;
15643;SDS011;7921;43.586;1.408;2023-01-13T07:33:29;3.70;;;2.50;;
15643;SDS011;7921;43.586;1.408;2023-01-13T07:35:58;4.67;;;2.67;;
15643;SDS011;7921;43.586;1.408;2023-01-13T07:38:25;4.27;;;2.23;;
15643;SDS011;7921;43.586;1.408;2023-01-13T07:40:50;4.40;;;2.30;;
15643;SDS011;7921;43.586;1.408;2023-01-13T07:43:16;5.00;;;2.40;;
15643;SDS011;7921;43.586;1.408;2023-01-13T07:45:56;3.17;;;1.70;;
15643;SDS011;7921;43.586;1.408;2023-01-13T07:48:29;3.80;;;2.00;;
15643;SDS011;7921;43.586;1.408;2023-01-13T07:50:59;3.50;;;2.10;;
15643;SDS011;7921;43.586;1.408;2023-01-13T07:53:26;4.07;;;1.80;;
15643;SDS011;7921;43.586;1.408;2023-01-13T07:55:54;3.60;;;2.13;;
15643;SDS011;7921;43.586;1.408;2023-01-13T07:58:21;4.07;;;1.93;;
15643;SDS011;7921;43.586;1.408;2023-01-13T08:00:46;4.17;;;1.77;;
15643;SDS011;7921;43.586;1.408;2023-01-13T08:03:12;3.57;;;1.90;;
15643;SDS011;7921;43.586;1.408;2023-01-13T08:05:38;1.90;;;1.70;;
15643;SDS011;7921;43.586;1.408;2023-01-13T08:08:03;2.57;;;1.60;;
15643;SDS011;7921;43.586;1.408;2023-01-13T08:10:28;2.97;;;1.63;;
15643;SDS011;7921;43.586;1.408;2023-01-13T08:12:54;3.67;;;1.43;;
15643;SDS011;7921;43.586;1.408;2023-01-13T08:15:38;2.53;;;1.43;;
15643;SDS011;7921;43.586;1.408;2023-01-13T08:18:03;3.43;;;1.30;;
15643;SDS011;7921;43.586;1.408;2023-01-13T08:20:28;3.17;;;1.90;;
15643;SDS011;7921;43.586;1.408;2023-01-13T08:22:57;2.30;;;1.67;;
15643;SDS011;7921;43.586;1.408;2023-01-13T08:25:23;2.47;;;1.50;;
15643;SDS011;7921;43.586;1.408;2023-01-13T08:27:50;2.60;;;1.50;;
15643;SDS011;7921;43.586;1.408;2023-01-13T08:30:15;1.77;;;1.30;;
15643;SDS011;7921;43.586;1.408;2023-01-13T08:32:44;1.77;;;1.40;;
15643;SDS011;7921;43.586;1.408;2023-01-13T08:35:10;1.80;;;1.57;;
15643;SDS011;7921;43.586;1.408;2023-01-13T08:37:36;3.70;;;1.73;;
15643;SDS011;7921;43.586;1.408;2023-01-13T08:40:02;2.67;;;1.50;;
15643;SDS011;7921;43.586;1.408;2023-01-13T08:42:27;3.33;;;1.63;;
15643;SDS011;7921;43.586;1.408;2023-01-13T08:44:55;2.13;;;1.50;;
15643;SDS011;7921;43.586;1.408;2023-01-13T08:47:20;1.57;;;1.47;;
15643;SDS011;7921;43.586;1.408;2023-01-13T08:49:46;2.10;;;1.37;;
15643;SDS011;7921;43.586;1.408;2023-01-13T08:52:12;2.67;;;1.30;;
15643;SDS011;7921;43.586;1.408;2023-01-13T08:54:38;2.07;;;1.47;;
15643;SDS011;7921;43.586;1.408;2023-01-13T08:57:04;1.77;;;1.30;;
15643;SDS011;7921;43.586;1.408;2023-01-13T08:59:29;2.93;;;1.90;;
15643;SDS011;7921;43.586;1.408;2023-01-13T09:01:55;2.83;;;1.60;;
15643;SDS011;7921;43.586;1.408;2023-01-13T09:04:21;2.90;;;1.60;;
15643;SDS011;7921;43.586;1.408;2023-01-13T09:06:48;2.20;;;1.60;;
15643;SDS011;7921;43.586;1.408;2023-01-13T09:09:13;4.20;;;1.83;;
15643;SDS011;7921;43.586;1.408;2023-01-13T09:11:40;2.37;;;1.47;;
15643;SDS011;7921;43.586;1.408;2023-01-13T09:14:27;1.57;;;1.13;;
15643;SDS011;7921;43.586;1.408;2023-01-13T09:16:53;1.63;;;1.37;;
15643;SDS011;7921;43.586;1.408;2023-01-13T09:19:19;1.80;;;1.37;;
15643;SDS011;7921;43.586;1.408;2023-01-13T09:21:44;3.17;;;1.77;;
15643;SDS011;7921;43.586;1.408;2023-01-13T09:24:09;2.23;;;1.30;;
15643;SDS011;7921;43.586;1.408;2023-01-13T09:26:35;2.87;;;1.50;;
15643;SDS011;7921;43.586;1.408;2023-01-13T09:29:01;2.40;;;1.37;;
15643;SDS011;7921;43.586;1.408;2023-01-13T09:31:27;1.83;;;1.30;;
15643;SDS011;7921;43.586;1.408;2023-01-13T09:33:52;2.80;;;1.87;;
15643;SDS011;7921;43.586;1.408;2023-01-13T09:36:36;2.27;;;1.53;;
15643;SDS011;7921;43.586;1.408;2023-01-13T09:39:01;1.70;;;1.20;;
15643;SDS011;7921;43.586;1.408;2023-01-13T09:41:28;2.80;;;1.33;;
15643;SDS011;7921;43.586;1.408;2023-01-13T09:44:57;1.93;;;1.20;;
15643;SDS011;7921;43.586;1.408;2023-01-13T09:47:36;2.60;;;1.47;;
15643;SDS011;7921;43.586;1.408;2023-01-13T09:52:39;1.43;;;1.30;;
15643;SDS011;7921;43.586;1.408;2023-01-13T09:55:14;1.97;;;1.30;;
15643;SDS011;7921;43.586;1.408;2023-01-13T09:57:41;1.63;;;1.10;;
15643;SDS011;7921;43.586;1.408;2023-01-13T10:05:34;2.00;;;1.03;;
15643;SDS011;7921;43.586;1.408;2023-01-13T10:08:11;2.70;;;1.20;;
15643;SDS011;7921;43.586;1.408;2023-01-13T10:13:13;2.03;;;1.30;;
15643;SDS011;7921;43.586;1.408;2023-01-13T10:15:42;1.43;;;1.33;;
15643;SDS011;7921;43.586;1.408;2023-01-13T10:18:59;1.87;;;1.37;;
15643;SDS011;7921;43.586;1.408;2023-01-13T10:21:12;1.73;;;1.40;;
15643;SDS011;7921;43.586;1.408;2023-01-13T10:24:36;1.47;;;1.17;;
15643;SDS011;7921;43.586;1.408;2023-01-13T10:27:17;1.97;;;1.30;;
15643;SDS011;7921;43.586;1.408;2023-01-13T10:32:49;2.30;;;1.53;;
15643;SDS011;7921;43.586;1.408;2023-01-13T10:35:19;0.90;;;0.90;;
15643;SDS011;7921;43.586;1.408;2023-01-13T10:38:16;1.20;;;1.10;;
15643;SDS011;7921;43.586;1.408;2023-01-13T10:43:43;3.27;;;1.43;;
15643;SDS011;7921;43.586;1.408;2023-01-13T10:46:10;2.83;;;1.20;;
15643;SDS011;7921;43.586;1.408;2023-01-13T10:51:20;3.37;;;3.07;;
15643;SDS011;7921;43.586;1.408;2023-01-13T10:54:23;3.93;;;3.57;;
15643;SDS011;7921;43.586;1.408;2023-01-13T10:56:48;3.60;;;3.30;;
15643;SDS011;7921;43.586;1.408;2023-01-13T11:01:50;3.47;;;2.97;;
15643;SDS011;7921;43.586;1.408;2023-01-13T11:04:29;1.40;;;1.30;;
15643;SDS011;7921;43.586;1.408;2023-01-13T11:06:56;2.20;;;1.20;;
15643;SDS011;7921;43.586;1.408;2023-01-13T11:09:23;1.73;;;0.90;;
15643;SDS011;7921;43.586;1.408;2023-01-13T11:11:49;2.27;;;1.30;;
15643;SDS011;7921;43.586;1.408;2023-01-13T11:14:21;2.27;;;0.90;;
15643;SDS011;7921;43.586;1.408;2023-01-13T11:20:26;2.03;;;1.00;;
15643;SDS011;7921;43.586;1.408;2023-01-13T11:22:56;1.23;;;1.00;;
15643;SDS011;7921;43.586;1.408;2023-01-13T11:25:29;2.87;;;1.00;;
15643;SDS011;7921;43.586;1.408;2023-01-13T11:28:10;1.47;;;1.10;;
15643;SDS011;7921;43.586;1.408;2023-01-13T11:30:59;1.80;;;1.10;;
15643;SDS011;7921;43.586;1.408;2023-01-13T11:33:44;2.13;;;1.20;;
15643;SDS011;7921;43.586;1.408;2023-01-13T11:36:15;1.93;;;0.97;;
15643;SDS011;7921;43.586;1.408;2023-01-13T11:38:49;1.57;;;0.80;;
15643;SDS011;7921;43.586;1.408;2023-01-13T11:46:47;1.77;;;1.13;;
15643;SDS011;7921;43.586;1.408;2023-01-13T11:49:20;2.53;;;0.87;;
15643;SDS011;7921;43.586;1.408;2023-01-13T11:52:05;1.20;;;1.00;;
15643;SDS011;7921;43.586;1.408;2023-01-13T12:06:15;1.40;;;0.80;;
15643;SDS011;7921;43.586;1.408;2023-01-13T12:08:59;1.43;;;1.23;;
15643;SDS011;7921;43.586;1.408;2023-01-13T12:11:32;2.30;;;0.90;;
15643;SDS011;7921;43.586;1.408;2023-01-13T12:17:08;1.83;;;0.97;;
15643;SDS011;7921;43.586;1.408;2023-01-13T12:20:11;0.90;;;0.80;;
15643;SDS011;7921;43.586;1.408;2023-01-13T12:22:59;1.50;;;0.97;;
15643;SDS011;7921;43.586;1.408;2023-01-13T12:25:32;1.63;;;0.77;;
15643;SDS011;7921;43.586;1.408;2023-01-13T12:28:03;3.17;;;1.20;;
15643;SDS011;7921;43.586;1.408;2023-01-13T12:30:41;1.00;;;0.80;;
15643;SDS011;7921;43.586;1.408;2023-01-13T12:33:16;1.43;;;0.90;;
15643;SDS011;7921;43.586;1.408;2023-01-13T12:36:04;1.10;;;1.00;;
15643;SDS011;7921;43.586;1.408;2023-01-13T12:44:34;1.03;;;0.90;;
15643;SDS011;7921;43.586;1.408;2023-01-13T12:46:59;1.57;;;1.03;;
15643;SDS011;7921;43.586;1.408;2023-01-13T12:49:32;1.43;;;0.70;;
15643;SDS011;7921;43.586;1.408;2023-01-13T12:52:00;2.53;;;1.10;;
15643;SDS011;7921;43.586;1.408;2023-01-13T12:57:29;1.53;;;1.00;;
15643;SDS011;7921;43.586;1.408;2023-01-13T13:02:39;1.70;;;1.07;;
15643;SDS011;7921;43.586;1.408;2023-01-13T13:11:00;1.67;;;0.77;;
15643;SDS011;7921;43.586;1.408;2023-01-13T13:14:13;1.70;;;1.13;;
15643;SDS011;7921;43.586;1.408;2023-01-13T13:16:47;1.10;;;0.70;;
15643;SDS011;7921;43.586;1.408;2023-01-13T13:24:43;1.87;;;1.00;;
15643;SDS011;7921;43.586;1.408;2023-01-13T13:41:43;1.37;;;1.00;;
15643;SDS011;7921;43.586;1.408;2023-01-13T13:44:29;2.00;;;1.10;;
15643;SDS011;7921;43.586;1.408;2023-01-13T13:47:15;4.47;;;1.20;;
15643;SDS011;7921;43.586;1.408;2023-01-13T13:49:44;1.30;;;1.20;;
15643;SDS011;7921;43.586;1.408;2023-01-13T13:52:25;3.37;;;1.10;;
15643;SDS011;7921;43.586;1.408;2023-01-13T13:54:56;2.37;;;1.03;;
15643;SDS011;7921;43.586;1.408;2023-01-13T13:57:28;2.03;;;1.00;;
15643;SDS011;7921;43.586;1.408;2023-01-13T13:59:58;1.77;;;0.80;;
15643;SDS011;7921;43.586;1.408;2023-01-13T14:02:26;1.27;;;0.70;;
15643;SDS011;7921;43.586;1.408;2023-01-13T14:07:42;1.60;;;1.03;;
15643;SDS011;7921;43.586;1.408;2023-01-13T14:10:13;2.13;;;0.97;;
15643;SDS011;7921;43.586;1.408;2023-01-13T14:12:42;1.43;;;0.90;;
15643;SDS011;7921;43.586;1.408;2023-01-13T14:15:24;1.70;;;1.00;;
15643;SDS011;7921;43.586;1.408;2023-01-13T14:17:51;1.67;;;1.10;;
15643;SDS011;7921;43.586;1.408;2023-01-13T14:20:17;1.57;;;0.90;;
15643;SDS011;7921;43.586;1.408;2023-01-13T14:22:46;1.33;;;0.90;;
15643;SDS011;7921;43.586;1.408;2023-01-13T14:25:25;2.30;;;1.10;;
15643;SDS011;7921;43.586;1.408;2023-01-13T14:27:58;1.53;;;1.20;;
15643;SDS011;7921;43.586;1.408;2023-01-13T14:30:38;3.10;;;1.50;;
15643;SDS011;7921;43.586;1.408;2023-01-13T14:33:04;2.83;;;1.13;;
15643;SDS011;7921;43.586;1.408;2023-01-13T14:35:30;2.10;;;1.13;;
15643;SDS011;7921;43.586;1.408;2023-01-13T14:38:02;2.63;;;0.93;;
15643;SDS011;7921;43.586;1.408;2023-01-13T14:42:57;3.90;;;1.53;;
15643;SDS011;7921;43.586;1.408;2023-01-13T14:45:23;3.27;;;1.20;;
15643;SDS011;7921;43.586;1.408;2023-01-13T14:47:50;2.13;;;0.83;;
15643;SDS011;7921;43.586;1.408;2023-01-13T14:50:20;2.40;;;1.27;;
15643;SDS011;7921;43.586;1.408;2023-01-13T14:52:52;2.93;;;1.40;;
15643;SDS011;7921;43.586;1.408;2023-01-13T14:55:32;2.10;;;0.97;;
15643;SDS011;7921;43.586;1.408;2023-01-13T15:00:44;2.67;;;1.07;;
15643;SDS011;7921;43.586;1.408;2023-01-13T15:03:12;3.73;;;1.20;;
15643;SDS011;7921;43.586;1.408;2023-01-13T15:05:38;2.90;;;1.30;;
15643;SDS011;7921;43.586;1.408;2023-01-13T15:16:16;2.60;;;1.40;;
15643;SDS011;7921;43.586;1.408;2023-01-13T15:18:44;2.37;;;1.50;;
15643;SDS011;7921;43.586;1.408;2023-01-13T15:21:09;2.60;;;1.13;;
15643;SDS011;7921;43.586;1.408;2023-01-13T15:23:35;3.63;;;1.60;;
15643;SDS011;7921;43.586;1.408;2023-01-13T15:26:01;4.83;;;1.50;;
15643;SDS011;7921;43.586;1.408;2023-01-13T15:28:27;2.50;;;1.30;;
15643;SDS011;7921;43.586;1.408;2023-01-13T15:30:53;3.63;;;1.80;;
15643;SDS011;7921;43.586;1.408;2023-01-13T15:33:20;3.30;;;1.40;;
15643;SDS011;7921;43.586;1.408;2023-01-13T15:35:46;3.27;;;1.70;;
15643;SDS011;7921;43.586;1.408;2023-01-13T15:38:15;3.03;;;1.67;;
15643;SDS011;7921;43.586;1.408;2023-01-13T15:40:43;2.77;;;1.67;;
15643;SDS011;7921;43.586;1.408;2023-01-13T15:43:12;4.63;;;1.67;;
15643;SDS011;7921;43.586;1.408;2023-01-13T15:45:57;3.07;;;1.40;;
15643;SDS011;7921;43.586;1.408;2023-01-13T15:48:41;2.87;;;1.23;;
15643;SDS011;7921;43.586;1.408;2023-01-13T15:51:07;4.27;;;2.50;;
15643;SDS011;7921;43.586;1.408;2023-01-13T15:53:34;2.93;;;1.47;;
15643;SDS011;7921;43.586;1.408;2023-01-13T15:56:01;4.00;;;1.93;;
15643;SDS011;7921;43.586;1.408;2023-01-13T15:58:26;3.00;;;2.00;;
15643;SDS011;7921;43.586;1.408;2023-01-13T16:00:54;3.00;;;1.80;;
15643;SDS011;7921;43.586;1.408;2023-01-13T16:03:19;3.33;;;2.10;;
15643;SDS011;7921;43.586;1.408;2023-01-13T16:05:45;5.10;;;1.80;;
15643;SDS011;7921;43.586;1.408;2023-01-13T16:08:14;4.60;;;1.40;;
15643;SDS011;7921;43.586;1.408;2023-01-13T16:10:41;3.97;;;1.47;;
15643;SDS011;7921;43.586;1.408;2023-01-13T16:13:07;3.33;;;1.30;;
15643;SDS011;7921;43.586;1.408;2023-01-13T16:15:32;3.27;;;1.63;;
15643;SDS011;7921;43.586;1.408;2023-01-13T16:17:58;5.33;;;1.87;;
15643;SDS011;7921;43.586;1.408;2023-01-13T16:20:26;2.87;;;1.40;;
15643;SDS011;7921;43.586;1.408;2023-01-13T16:22:51;2.47;;;1.60;;
15643;SDS011;7921;43.586;1.408;2023-01-13T16:25:21;2.93;;;1.50;;
15643;SDS011;7921;43.586;1.408;2023-01-13T16:27:48;6.27;;;2.03;;
15643;SDS011;7921;43.586;1.408;2023-01-13T16:32:50;2.40;;;1.50;;
15643;SDS011;7921;43.586;1.408;2023-01-13T16:35:15;4.00;;;1.80;;
15643;SDS011;7921;43.586;1.408;2023-01-13T16:37:42;3.53;;;1.63;;
15643;SDS011;7921;43.586;1.408;2023-01-13T16:40:16;4.53;;;2.60;;
15643;SDS011;7921;43.586;1.408;2023-01-13T16:42:42;5.87;;;2.80;;
15643;SDS011;7921;43.586;1.408;2023-01-13T16:45:07;4.00;;;2.30;;
15643;SDS011;7921;43.586;1.408;2023-01-13T16:47:33;2.03;;;1.83;;
15643;SDS011;7921;43.586;1.408;2023-01-13T16:49:59;3.00;;;1.90;;
15643;SDS011;7921;43.586;1.408;2023-01-13T16:52:24;4.30;;;2.03;;
15643;SDS011;7921;43.586;1.408;2023-01-13T16:54:49;5.43;;;1.77;;
15643;SDS011;7921;43.586;1.408;2023-01-13T16:57:15;3.97;;;1.70;;
15643;SDS011;7921;43.586;1.408;2023-01-13T16:59:40;4.37;;;2.10;;
15643;SDS011;7921;43.586;1.408;2023-01-13T17:02:10;3.77;;;2.00;;
15643;SDS011;7921;43.586;1.408;2023-01-13T17:04:37;4.57;;;2.03;;
15643;SDS011;7921;43.586;1.408;2023-01-13T17:07:03;3.40;;;1.90;;
15643;SDS011;7921;43.586;1.408;2023-01-13T17:09:30;6.05;;;3.30;;
15643;SDS011;7921;43.586;1.408;2023-01-13T17:11:56;6.27;;;3.10;;
15643;SDS011;7921;43.586;1.408;2023-01-13T17:14:21;4.93;;;2.50;;
15643;SDS011;7921;43.586;1.408;2023-01-13T17:16:51;3.87;;;2.20;;
15643;SDS011;7921;43.586;1.408;2023-01-13T17:19:18;3.53;;;2.47;;
15643;SDS011;7921;43.586;1.408;2023-01-13T17:21:43;6.80;;;2.73;;
15643;SDS011;7921;43.586;1.408;2023-01-13T17:24:11;6.07;;;2.77;;
15643;SDS011;7921;43.586;1.408;2023-01-13T17:26:38;8.80;;;3.10;;
15643;SDS011;7921;43.586;1.408;2023-01-13T17:29:10;4.27;;;2.50;;
15643;SDS011;7921;43.586;1.408;2023-01-13T17:31:37;4.57;;;2.93;;
15643;SDS011;7921;43.586;1.408;2023-01-13T17:34:03;6.50;;;3.53;;